createdAt,value
2023-03-07T00:00:30.341Z,995.02
2023-03-07T00:01:30.349Z,995.06
2023-03-07T00:02:30.330Z,995.02
2023-03-07T00:03:30.317Z,995.04
2023-03-07T00:04:30.290Z,995.06
2023-03-07T00:05:30.288Z,995.02
2023-03-07T00:06:30.278Z,995.04
2023-03-07T00:07:30.270Z,994.99
2023-03-07T00:08:30.253Z,995.04
2023-03-07T00:09:30.246Z,995.02
2023-03-07T00:10:30.235Z,994.98
2023-03-07T00:11:30.226Z,995.03
2023-03-07T00:12:30.207Z,995.00
2023-03-07T00:13:30.202Z,995.05
2023-03-07T00:14:30.186Z,995.01
2023-03-07T00:15:30.167Z,995.00
2023-03-07T00:16:30.197Z,995.01
2023-03-07T00:17:30.155Z,994.96
2023-03-07T00:18:30.145Z,994.98
2023-03-07T00:19:30.149Z,995.01
2023-03-07T00:20:30.131Z,994.93
2023-03-07T00:21:30.119Z,994.95
2023-03-07T00:22:30.111Z,995.01
2023-03-07T00:23:30.088Z,994.97
2023-03-07T00:24:30.068Z,995.00
2023-03-07T00:25:30.069Z,995.02
2023-03-07T00:26:30.068Z,994.95
2023-03-07T00:27:30.054Z,994.94
2023-03-07T00:28:30.028Z,994.92
2023-03-07T00:29:30.030Z,994.89
2023-03-07T00:30:30.003Z,994.89
2023-03-07T00:31:30.036Z,994.90
2023-03-07T00:32:30.062Z,994.87
2023-03-07T00:33:29.977Z,994.87
2023-03-07T00:34:29.979Z,994.85
2023-03-07T00:35:29.971Z,994.90
2023-03-07T00:36:29.947Z,994.88
2023-03-07T00:37:29.936Z,994.85
2023-03-07T00:38:29.928Z,994.84
2023-03-07T00:39:29.926Z,994.76
2023-03-07T00:40:29.904Z,994.76
2023-03-07T00:41:29.898Z,994.78
2023-03-07T00:42:29.881Z,994.76
2023-03-07T00:43:29.873Z,994.77
2023-03-07T00:44:29.911Z,994.71
2023-03-07T00:45:29.895Z,994.72
2023-03-07T00:46:29.844Z,994.80
2023-03-07T00:47:29.822Z,994.75
2023-03-07T00:48:29.825Z,994.68
2023-03-07T00:49:29.841Z,994.67
2023-03-07T00:50:29.799Z,994.69
2023-03-07T00:51:29.780Z,994.72
2023-03-07T00:52:29.785Z,994.67
2023-03-07T00:53:29.766Z,994.68
2023-03-07T00:54:29.751Z,994.68
2023-03-07T00:55:29.765Z,994.64
2023-03-07T00:56:29.733Z,994.60
2023-03-07T00:57:29.732Z,994.62
2023-03-07T00:58:29.713Z,994.62
2023-03-07T00:59:29.693Z,994.59
2023-03-07T01:00:29.694Z,994.59
2023-03-07T01:01:29.675Z,994.62
2023-03-07T01:02:29.687Z,994.61
2023-03-07T01:03:29.659Z,994.52
2023-03-07T01:04:29.698Z,994.50
2023-03-07T01:05:29.635Z,994.48
2023-03-07T01:06:29.622Z,994.50
2023-03-07T01:07:29.744Z,994.49
2023-03-07T01:08:29.604Z,994.49
2023-03-07T01:09:29.584Z,994.45
2023-03-07T01:10:29.583Z,994.48
2023-03-07T01:11:29.565Z,994.45
2023-03-07T01:12:29.563Z,994.40
2023-03-07T01:13:29.546Z,994.38
2023-03-07T01:14:29.545Z,994.37
2023-03-07T01:15:29.618Z,994.40
2023-03-07T01:16:29.563Z,994.39
2023-03-07T01:17:29.639Z,994.38
2023-03-07T01:18:29.494Z,994.33
2023-03-07T01:19:29.491Z,994.37
2023-03-07T01:20:29.473Z,994.35
2023-03-07T01:21:29.472Z,994.34
2023-03-07T01:22:29.480Z,994.34
2023-03-07T01:23:29.439Z,994.37
2023-03-07T01:24:29.436Z,994.34
2023-03-07T01:25:29.496Z,994.31
2023-03-07T01:26:29.408Z,994.33
2023-03-07T01:27:29.404Z,994.35
2023-03-07T01:28:29.416Z,994.38
2023-03-07T01:29:29.365Z,994.21
2023-03-07T01:30:29.365Z,994.30
2023-03-07T01:31:29.359Z,994.26
2023-03-07T01:32:29.453Z,994.22
2023-03-07T01:33:29.374Z,994.19
2023-03-07T01:34:29.336Z,994.25
2023-03-07T01:35:29.304Z,994.26
2023-03-07T01:36:29.315Z,994.20
2023-03-07T01:37:29.301Z,994.20
2023-03-07T01:38:29.285Z,994.20
2023-03-07T01:39:29.268Z,994.22
2023-03-07T01:40:29.261Z,994.25
2023-03-07T01:41:29.237Z,994.23
2023-03-07T01:42:29.246Z,994.23
2023-03-07T01:43:29.224Z,994.17
2023-03-07T01:44:29.236Z,994.17
2023-03-07T01:45:29.204Z,994.15
2023-03-07T01:46:29.188Z,994.22
2023-03-07T01:47:29.174Z,994.14
2023-03-07T01:48:29.178Z,994.17
2023-03-07T01:49:29.404Z,994.14
2023-03-07T01:50:29.146Z,994.15
2023-03-07T01:51:29.127Z,994.10
2023-03-07T01:52:29.154Z,994.12
2023-03-07T01:53:29.132Z,994.10
2023-03-07T01:54:29.116Z,994.13
2023-03-07T01:55:29.091Z,994.10
2023-03-07T01:56:29.155Z,994.09
2023-03-07T01:57:29.054Z,994.08
2023-03-07T01:58:29.053Z,994.07
2023-03-07T01:59:29.132Z,994.04
2023-03-07T02:00:29.050Z,994.08
2023-03-07T02:01:29.037Z,994.06
2023-03-07T02:02:29.014Z,994.02
2023-03-07T02:03:28.994Z,993.97
2023-03-07T02:04:29.110Z,993.99
2023-03-07T02:05:28.976Z,993.94
2023-03-07T02:06:28.980Z,993.95
2023-03-07T02:07:28.955Z,993.93
2023-03-07T02:08:28.942Z,993.95
2023-03-07T02:09:28.950Z,993.88
2023-03-07T02:10:28.927Z,993.86
2023-03-07T02:11:28.954Z,993.83
2023-03-07T02:12:28.893Z,993.87
2023-03-07T02:13:28.886Z,993.87
2023-03-07T02:14:28.895Z,993.83
2023-03-07T02:15:28.868Z,993.88
2023-03-07T02:16:28.853Z,993.81
2023-03-07T02:17:28.849Z,993.83
2023-03-07T02:18:28.854Z,993.80
2023-03-07T02:19:28.855Z,993.79
2023-03-07T02:20:28.853Z,993.78
2023-03-07T02:21:28.885Z,993.73
2023-03-07T02:22:28.805Z,993.74
2023-03-07T02:23:28.807Z,993.79
2023-03-07T02:24:28.797Z,993.70
2023-03-07T02:25:28.791Z,993.75
2023-03-07T02:26:28.765Z,993.72
2023-03-07T02:27:28.827Z,993.73
2023-03-07T02:28:28.767Z,993.69
2023-03-07T02:29:28.749Z,993.69
2023-03-07T02:30:28.719Z,993.68
2023-03-07T02:31:28.697Z,993.68
2023-03-07T02:32:28.746Z,993.66
2023-03-07T02:33:28.692Z,993.60
2023-03-07T02:34:28.700Z,993.63
2023-03-07T02:35:28.688Z,993.64
2023-03-07T02:36:28.655Z,993.60
2023-03-07T02:37:28.669Z,993.62
2023-03-07T02:38:28.640Z,993.64
2023-03-07T02:39:28.647Z,993.60
2023-03-07T02:40:28.597Z,993.65
2023-03-07T02:41:28.590Z,993.64
2023-03-07T02:42:28.613Z,993.64
2023-03-07T02:43:28.573Z,993.58
2023-03-07T02:44:28.561Z,993.63
2023-03-07T02:45:28.548Z,993.64
2023-03-07T02:46:28.579Z,993.58
2023-03-07T02:47:28.523Z,993.54
2023-03-07T02:48:28.509Z,993.52
2023-03-07T02:49:28.500Z,993.57
2023-03-07T02:50:28.491Z,993.52
2023-03-07T02:51:28.470Z,993.50
2023-03-07T02:52:28.488Z,993.52
2023-03-07T02:53:28.452Z,993.53
2023-03-07T02:54:28.455Z,993.52
2023-03-07T02:55:28.444Z,993.55
2023-03-07T02:56:28.430Z,993.49
2023-03-07T02:57:28.401Z,993.48
2023-03-07T02:58:28.419Z,993.46
2023-03-07T02:59:28.398Z,993.47
2023-03-07T03:00:28.388Z,993.44
2023-03-07T03:01:28.383Z,993.42
2023-03-07T03:02:28.363Z,993.41
2023-03-07T03:03:28.341Z,993.44
2023-03-07T03:04:28.396Z,993.39
2023-03-07T03:05:28.324Z,993.40
2023-03-07T03:06:28.322Z,993.41
2023-03-07T03:07:28.328Z,993.41
2023-03-07T03:08:28.334Z,993.41
2023-03-07T03:09:28.288Z,993.52
2023-03-07T03:10:28.289Z,993.44
2023-03-07T03:11:28.259Z,993.41
2023-03-07T03:12:28.322Z,993.43
2023-03-07T03:13:28.287Z,993.47
2023-03-07T03:14:28.273Z,993.39
2023-03-07T03:15:28.209Z,993.45
2023-03-07T03:16:28.244Z,993.37
2023-03-07T03:17:28.187Z,993.39
2023-03-07T03:18:28.189Z,993.42
2023-03-07T03:19:28.189Z,993.43
2023-03-07T03:20:28.165Z,993.35
2023-03-07T03:21:28.150Z,993.35
2023-03-07T03:22:28.148Z,993.37
2023-03-07T03:23:28.157Z,993.36
2023-03-07T03:24:28.128Z,993.34
2023-03-07T03:25:28.114Z,993.35
2023-03-07T03:26:28.100Z,993.35
2023-03-07T03:27:28.085Z,993.35
2023-03-07T03:28:28.087Z,993.33
2023-03-07T03:29:28.082Z,993.35
2023-03-07T03:30:28.061Z,993.31
2023-03-07T03:31:28.129Z,993.34
2023-03-07T03:32:28.108Z,993.28
2023-03-07T03:33:28.020Z,993.32
2023-03-07T03:34:28.008Z,993.37
2023-03-07T03:35:28.001Z,993.31
2023-03-07T03:36:27.994Z,993.31
2023-03-07T03:37:27.988Z,993.33
2023-03-07T03:38:27.993Z,993.31
2023-03-07T03:39:27.958Z,993.29
2023-03-07T03:40:27.951Z,993.30
2023-03-07T03:41:27.939Z,993.26
2023-03-07T03:42:27.927Z,993.31
2023-03-07T03:43:27.916Z,993.24
2023-03-07T03:44:27.932Z,993.23
2023-03-07T03:45:28.013Z,993.24
2023-03-07T03:46:27.883Z,993.21
2023-03-07T03:47:27.869Z,993.24
2023-03-07T03:48:27.853Z,993.22
2023-03-07T03:49:27.861Z,993.20
2023-03-07T03:50:27.847Z,993.22
2023-03-07T03:51:27.841Z,993.25
2023-03-07T03:52:27.818Z,993.16
2023-03-07T03:53:27.808Z,993.15
2023-03-07T03:54:27.799Z,993.21
2023-03-07T03:55:27.793Z,993.13
2023-03-07T03:56:27.771Z,993.13
2023-03-07T03:57:27.761Z,993.11
2023-03-07T03:58:27.749Z,993.13
2023-03-07T03:59:27.752Z,993.08
2023-03-07T04:00:27.719Z,993.09
2023-03-07T04:01:27.720Z,993.10
2023-03-07T04:02:27.805Z,993.08
2023-03-07T04:03:27.692Z,993.06
2023-03-07T04:04:27.692Z,993.07
2023-03-07T04:05:27.670Z,993.10
2023-03-07T04:06:27.658Z,993.09
2023-03-07T04:07:27.658Z,993.05
2023-03-07T04:08:27.639Z,993.01
2023-03-07T04:09:27.640Z,993.03
2023-03-07T04:10:27.618Z,992.93
2023-03-07T04:11:27.650Z,992.99
2023-03-07T04:12:27.590Z,992.98
2023-03-07T04:13:27.588Z,992.96
2023-03-07T04:14:27.588Z,992.96
2023-03-07T04:15:27.558Z,992.94
2023-03-07T04:16:27.621Z,992.90
2023-03-07T04:17:27.549Z,992.89
2023-03-07T04:18:27.523Z,992.92
2023-03-07T04:19:29.385Z,992.94
2023-03-07T04:20:27.507Z,992.93
2023-03-07T04:21:27.499Z,992.89
2023-03-07T04:22:27.499Z,992.85
2023-03-07T04:23:27.483Z,992.87
2023-03-07T04:24:27.461Z,992.85
2023-03-07T04:25:27.458Z,992.81
2023-03-07T04:26:27.442Z,992.81
2023-03-07T04:27:27.438Z,992.81
2023-03-07T04:28:27.421Z,992.79
2023-03-07T04:29:27.439Z,992.81
2023-03-07T04:30:27.397Z,992.78
2023-03-07T04:31:27.439Z,992.73
2023-03-07T04:32:27.403Z,992.73
2023-03-07T04:33:27.380Z,992.74
2023-03-07T04:34:27.369Z,992.70
2023-03-07T04:35:27.362Z,992.72
2023-03-07T04:36:27.332Z,992.67
2023-03-07T04:37:27.321Z,992.66
2023-03-07T04:38:27.329Z,992.67
2023-03-07T04:39:27.298Z,992.65
2023-03-07T04:40:27.343Z,992.63
2023-03-07T04:41:27.319Z,992.65
2023-03-07T04:42:27.285Z,992.61
2023-03-07T04:43:27.290Z,992.52
2023-03-07T04:44:27.300Z,992.57
2023-03-07T04:45:27.275Z,992.56
2023-03-07T04:46:27.253Z,992.51
2023-03-07T04:47:27.230Z,992.51
2023-03-07T04:48:27.203Z,992.55
2023-03-07T04:49:27.220Z,992.53
2023-03-07T04:50:27.188Z,992.50
2023-03-07T04:51:27.182Z,992.51
2023-03-07T04:52:27.155Z,992.51
2023-03-07T04:53:27.167Z,992.51
2023-03-07T04:54:27.147Z,992.48
2023-03-07T04:55:27.131Z,992.40
2023-03-07T04:56:27.119Z,992.39
2023-03-07T04:57:27.108Z,992.47
2023-03-07T04:58:27.093Z,992.36
2023-03-07T04:59:27.112Z,992.43
2023-03-07T05:00:27.062Z,992.37
2023-03-07T05:01:27.148Z,992.39
2023-03-07T05:02:27.090Z,992.31
2023-03-07T05:03:27.051Z,992.32
2023-03-07T05:04:27.095Z,992.31
2023-03-07T05:05:27.022Z,992.31
2023-03-07T05:06:27.004Z,992.25
2023-03-07T05:07:27.002Z,992.23
2023-03-07T05:08:26.986Z,992.21
2023-03-07T05:09:26.983Z,992.13
2023-03-07T05:10:27.033Z,992.19
2023-03-07T05:11:26.971Z,992.20
2023-03-07T05:12:26.983Z,992.17
2023-03-07T05:13:26.951Z,992.19
2023-03-07T05:14:26.938Z,992.15
2023-03-07T05:15:26.915Z,992.13
2023-03-07T05:16:26.896Z,992.16
2023-03-07T05:17:26.893Z,992.11
2023-03-07T05:18:26.876Z,992.13
2023-03-07T05:19:26.889Z,992.19
2023-03-07T05:20:26.855Z,992.14
2023-03-07T05:21:26.872Z,992.11
2023-03-07T05:22:26.849Z,992.08
2023-03-07T05:23:26.830Z,992.09
2023-03-07T05:24:26.830Z,992.13
2023-03-07T05:25:26.819Z,992.14
2023-03-07T05:26:26.793Z,992.11
2023-03-07T05:27:26.783Z,992.14
2023-03-07T05:28:26.774Z,992.13
2023-03-07T05:29:26.756Z,992.17
2023-03-07T05:30:26.744Z,992.14
2023-03-07T05:31:26.792Z,992.17
2023-03-07T05:32:26.805Z,992.21
2023-03-07T05:33:26.721Z,992.13
2023-03-07T05:34:26.794Z,992.17
2023-03-07T05:35:26.723Z,992.18
2023-03-07T05:36:26.676Z,992.17
2023-03-07T05:37:26.677Z,992.22
2023-03-07T05:38:26.656Z,992.20
2023-03-07T05:39:26.647Z,992.18
2023-03-07T05:40:26.647Z,992.16
2023-03-07T05:41:26.626Z,992.14
2023-03-07T05:42:26.694Z,992.17
2023-03-07T05:43:26.616Z,992.14
2023-03-07T05:44:26.603Z,992.20
2023-03-07T05:45:26.595Z,992.17
2023-03-07T05:46:26.609Z,992.14
2023-03-07T05:47:26.567Z,992.17
2023-03-07T05:48:26.557Z,992.20
2023-03-07T05:49:26.548Z,992.18
2023-03-07T05:50:26.543Z,992.22
2023-03-07T05:51:26.519Z,992.23
2023-03-07T05:52:26.510Z,992.19
2023-03-07T05:53:26.509Z,992.21
2023-03-07T05:54:26.487Z,992.17
2023-03-07T05:55:26.500Z,992.22
2023-03-07T05:56:26.463Z,992.23
2023-03-07T05:57:26.466Z,992.21
2023-03-07T05:58:26.445Z,992.24
2023-03-07T05:59:26.437Z,992.26
2023-03-07T06:00:26.439Z,992.19
2023-03-07T06:01:26.408Z,992.16
2023-03-07T06:02:26.461Z,992.23
2023-03-07T06:03:26.414Z,992.13
2023-03-07T06:04:26.419Z,992.11
2023-03-07T06:05:26.383Z,992.13
2023-03-07T06:06:26.349Z,992.11
2023-03-07T06:07:26.378Z,992.14
2023-03-07T06:08:26.341Z,992.13
2023-03-07T06:09:26.326Z,992.16
2023-03-07T06:10:26.330Z,992.21
2023-03-07T06:11:26.299Z,992.16
2023-03-07T06:12:26.281Z,992.15
2023-03-07T06:13:26.299Z,992.16
2023-03-07T06:14:26.270Z,992.16
2023-03-07T06:15:26.283Z,992.15
2023-03-07T06:16:26.406Z,992.17
2023-03-07T06:17:26.241Z,992.12
2023-03-07T06:18:26.217Z,992.15
2023-03-07T06:19:26.221Z,992.16
2023-03-07T06:20:26.228Z,992.15
2023-03-07T06:21:26.203Z,992.16
2023-03-07T06:22:26.193Z,992.13
2023-03-07T06:23:26.175Z,992.16
2023-03-07T06:24:26.169Z,992.12
2023-03-07T06:25:26.155Z,992.17
2023-03-07T06:26:26.147Z,992.11
2023-03-07T06:27:26.151Z,992.14
2023-03-07T06:28:26.132Z,992.11
2023-03-07T06:29:26.128Z,992.08
2023-03-07T06:30:26.115Z,992.11
2023-03-07T06:31:26.119Z,992.12
2023-03-07T06:32:26.153Z,992.08
2023-03-07T06:33:26.062Z,992.07
2023-03-07T06:34:26.072Z,992.02
2023-03-07T06:35:26.045Z,992.09
2023-03-07T06:36:26.103Z,992.02
2023-03-07T06:37:26.014Z,991.98
2023-03-07T06:38:26.011Z,992.04
2023-03-07T06:39:26.004Z,992.04
2023-03-07T06:40:26.002Z,991.99
2023-03-07T06:41:25.972Z,992.04
2023-03-07T06:42:25.976Z,992.02
2023-03-07T06:43:25.968Z,992.07
2023-03-07T06:44:25.962Z,992.02
2023-03-07T06:45:25.983Z,992.03
2023-03-07T06:46:25.936Z,992.09
2023-03-07T06:47:25.925Z,992.04
2023-03-07T06:48:25.894Z,992.04
2023-03-07T06:49:25.905Z,991.98
2023-03-07T06:50:34.644Z,991.94
2023-03-07T06:51:27.155Z,991.96
2023-03-07T06:52:25.874Z,991.97
2023-03-07T06:53:25.851Z,991.99
2023-03-07T06:54:25.850Z,991.99
2023-03-07T06:55:25.917Z,991.96
2023-03-07T06:56:25.812Z,992.00
2023-03-07T06:57:25.809Z,991.96
2023-03-07T06:58:25.789Z,991.99
2023-03-07T06:59:25.814Z,991.89
2023-03-07T07:00:25.778Z,991.95
2023-03-07T07:01:25.772Z,991.98
2023-03-07T07:02:25.866Z,991.97
2023-03-07T07:03:25.746Z,991.95
2023-03-07T07:04:25.725Z,991.93
2023-03-07T07:05:25.761Z,992.00
2023-03-07T07:06:25.705Z,991.94
2023-03-07T07:07:25.696Z,991.93
2023-03-07T07:08:25.689Z,991.92
2023-03-07T07:09:25.664Z,991.97
2023-03-07T07:10:25.744Z,991.92
2023-03-07T07:11:25.667Z,991.88
2023-03-07T07:12:25.634Z,991.89
2023-03-07T07:13:25.626Z,991.92
2023-03-07T07:14:25.617Z,991.93
2023-03-07T07:15:25.615Z,991.91
2023-03-07T07:16:25.636Z,991.93
2023-03-07T07:17:25.588Z,991.94
2023-03-07T07:18:26.517Z,991.91
2023-03-07T07:19:25.577Z,991.89
2023-03-07T07:20:25.557Z,991.89
2023-03-07T07:21:25.562Z,991.89
2023-03-07T07:22:25.523Z,991.87
2023-03-07T07:23:25.518Z,991.89
2023-03-07T07:24:25.506Z,991.85
2023-03-07T07:25:25.505Z,991.91
2023-03-07T07:26:25.477Z,991.92
2023-03-07T07:27:25.476Z,991.91
2023-03-07T07:28:25.467Z,991.89
2023-03-07T07:29:25.539Z,991.90
2023-03-07T07:30:25.452Z,991.94
2023-03-07T07:31:25.452Z,991.83
2023-03-07T07:32:25.784Z,991.93
2023-03-07T07:33:25.483Z,991.93
2023-03-07T07:34:26.393Z,991.92
2023-03-07T07:35:25.485Z,991.92
2023-03-07T07:36:25.381Z,991.89
2023-03-07T07:37:25.512Z,992.01
2023-03-07T07:38:25.360Z,991.91
2023-03-07T07:39:25.489Z,991.92
2023-03-07T07:40:25.344Z,991.90
2023-03-07T07:41:25.333Z,991.93
2023-03-07T07:42:25.314Z,992.02
2023-03-07T07:43:25.301Z,991.94
2023-03-07T07:44:25.289Z,991.99
2023-03-07T07:45:25.294Z,991.95
2023-03-07T07:46:25.292Z,991.99
2023-03-07T07:47:25.271Z,991.96
2023-03-07T07:48:25.243Z,992.03
2023-03-07T07:49:25.235Z,992.00
2023-03-07T07:50:25.238Z,992.03
2023-03-07T07:51:25.229Z,991.95
2023-03-07T07:52:25.226Z,992.09
2023-03-07T07:53:25.205Z,992.08
2023-03-07T07:54:25.200Z,992.01
2023-03-07T07:55:25.203Z,991.96
2023-03-07T07:56:25.173Z,991.90
2023-03-07T07:57:25.156Z,991.99
2023-03-07T07:58:25.136Z,991.93
2023-03-07T07:59:25.137Z,991.95
2023-03-07T08:00:25.142Z,992.00
2023-03-07T08:01:25.122Z,992.10
2023-03-07T08:02:25.111Z,992.00
2023-03-07T08:03:25.239Z,992.00
2023-03-07T08:04:25.087Z,991.94
2023-03-07T08:05:26.446Z,992.03
2023-03-07T08:06:25.941Z,991.98
2023-03-07T08:07:25.419Z,992.00
2023-03-07T08:08:25.033Z,991.96
2023-03-07T08:09:25.626Z,992.02
2023-03-07T08:10:25.156Z,992.10
2023-03-07T08:11:25.144Z,992.08
2023-03-07T08:12:27.063Z,992.10
2023-03-07T08:13:25.075Z,992.10
2023-03-07T08:14:24.971Z,992.05
2023-03-07T08:15:24.973Z,992.00
2023-03-07T08:16:24.957Z,992.04
2023-03-07T08:17:24.945Z,992.04
2023-03-07T08:18:24.930Z,992.06
2023-03-07T08:19:24.921Z,992.06
2023-03-07T08:20:24.912Z,991.99
2023-03-07T08:21:24.941Z,992.02
2023-03-07T08:22:24.881Z,992.11
2023-03-07T08:23:24.882Z,992.20
2023-03-07T08:24:38.598Z,992.03
2023-03-07T08:25:25.875Z,992.11
2023-03-07T08:26:24.863Z,992.03
2023-03-07T08:27:24.833Z,992.11
2023-03-07T08:28:24.844Z,992.13
2023-03-07T08:29:24.880Z,992.10
2023-03-07T08:30:24.872Z,992.05
2023-03-07T08:31:24.894Z,992.08
2023-03-07T08:32:24.803Z,992.02
2023-03-07T08:33:24.777Z,992.06
2023-03-07T08:34:24.755Z,992.06
2023-03-07T08:35:24.778Z,991.98
2023-03-07T09:31:18.361Z,991.96
2023-03-07T09:32:18.207Z,991.81
2023-03-07T09:33:18.266Z,991.81
2023-03-07T09:34:18.124Z,991.78
2023-03-07T09:35:18.115Z,991.81
2023-03-07T09:36:18.268Z,991.87
2023-03-07T09:37:18.118Z,991.86
2023-03-07T09:38:18.064Z,991.91
2023-03-07T09:39:18.055Z,991.82
2023-03-07T09:40:18.068Z,991.90
2023-03-07T09:41:18.038Z,991.93
2023-03-07T09:42:18.040Z,991.87
2023-03-07T09:43:18.009Z,991.80
2023-03-07T09:44:18.014Z,991.96
2023-03-07T09:45:18.008Z,991.80
2023-03-07T09:46:17.985Z,991.71
2023-03-07T09:47:17.969Z,991.80
2023-03-07T09:48:17.966Z,991.83
2023-03-07T09:49:17.952Z,991.77
2023-03-07T09:50:17.959Z,991.81
2023-03-07T09:51:17.918Z,991.76
2023-03-07T09:52:17.930Z,991.70
2023-03-07T09:53:17.917Z,991.70
2023-03-07T09:54:17.888Z,991.68
2023-03-07T09:55:17.910Z,991.67
2023-03-07T09:56:17.868Z,991.70
2023-03-07T09:57:17.981Z,991.75
2023-03-07T09:58:17.850Z,991.79
2023-03-07T09:59:23.219Z,991.75
2023-03-07T10:00:18.835Z,991.71
2023-03-07T10:01:17.831Z,991.70
2023-03-07T10:02:17.802Z,991.71
2023-03-07T10:03:17.845Z,991.75
2023-03-07T10:04:17.831Z,991.75
2023-03-07T10:05:17.794Z,991.74
2023-03-07T10:06:17.772Z,991.74
2023-03-07T10:07:17.762Z,991.69
2023-03-07T10:08:17.746Z,991.64
2023-03-07T10:09:17.754Z,991.69
2023-03-07T10:10:17.724Z,991.69
2023-03-07T10:11:17.745Z,991.71
2023-03-07T10:12:17.704Z,991.66
2023-03-07T10:13:17.684Z,991.65
2023-03-07T10:14:17.759Z,991.70
2023-03-07T10:15:17.690Z,991.67
2023-03-07T10:16:17.735Z,991.66
2023-03-07T10:17:17.643Z,991.72
2023-03-07T10:18:17.634Z,991.66
2023-03-07T10:19:17.638Z,991.70
2023-03-07T10:20:17.623Z,991.69
2023-03-07T10:21:17.597Z,991.72
2023-03-07T10:22:17.587Z,991.71
2023-03-07T10:23:17.586Z,991.67
2023-03-07T10:24:17.557Z,991.62
2023-03-07T10:25:17.610Z,991.67
2023-03-07T10:26:17.545Z,991.60
2023-03-07T10:27:17.546Z,991.67
2023-03-07T10:28:17.532Z,991.64
2023-03-07T10:29:17.517Z,991.61
2023-03-07T10:30:17.506Z,991.58
2023-03-07T10:31:17.539Z,991.58
2023-03-07T10:32:17.492Z,991.56
2023-03-07T10:33:17.466Z,991.57
2023-03-07T10:34:26.391Z,991.56
2023-03-07T10:35:18.453Z,991.54
2023-03-07T10:36:17.434Z,991.64
2023-03-07T10:37:17.423Z,991.55
2023-03-07T10:38:17.407Z,991.53
2023-03-07T10:39:17.395Z,991.52
2023-03-07T10:40:17.397Z,991.52
2023-03-07T10:41:17.390Z,991.48
2023-03-07T10:42:17.356Z,991.53
2023-03-07T10:43:17.365Z,991.48
2023-03-07T10:44:17.361Z,991.49
2023-03-07T10:45:17.347Z,991.50
2023-03-07T10:46:25.089Z,991.45
2023-03-07T10:47:18.304Z,991.47
2023-03-07T10:48:17.296Z,991.49
2023-03-07T10:49:17.297Z,991.64
2023-03-07T10:50:17.290Z,991.36
2023-03-07T10:51:17.306Z,991.44
2023-03-07T10:52:17.245Z,991.40
2023-03-07T10:53:17.242Z,991.32
2023-03-07T10:54:17.241Z,991.42
2023-03-07T10:55:17.263Z,991.27
2023-03-07T10:56:17.299Z,991.25
2023-03-07T10:57:17.199Z,991.29
2023-03-07T10:58:17.193Z,991.32
2023-03-07T10:59:17.174Z,991.34
2023-03-07T11:00:17.167Z,991.17
2023-03-07T11:01:17.291Z,991.13
2023-03-07T11:02:17.191Z,991.18
2023-03-07T11:03:17.137Z,991.18
2023-03-07T11:04:17.111Z,991.14
2023-03-07T11:05:17.133Z,991.11
2023-03-07T11:06:17.273Z,991.13
2023-03-07T11:07:17.094Z,991.09
2023-03-07T11:08:17.080Z,991.12
2023-03-07T11:09:17.097Z,991.12
2023-03-07T11:10:17.898Z,991.10
2023-03-07T11:11:17.056Z,991.07
2023-03-07T11:12:17.041Z,991.14
2023-03-07T11:13:17.028Z,991.12
2023-03-07T11:14:18.854Z,991.02
2023-03-07T11:15:17.015Z,991.09
2023-03-07T11:16:17.098Z,991.14
2023-03-07T11:17:16.974Z,991.08
2023-03-07T11:18:16.954Z,991.07
2023-03-07T11:19:16.956Z,991.06
2023-03-07T11:20:16.947Z,991.10
2023-03-07T11:21:16.927Z,991.28
2023-03-07T11:22:16.916Z,991.11
2023-03-07T11:23:16.911Z,991.08
2023-03-07T11:24:16.932Z,991.15
2023-03-07T11:25:16.901Z,991.14
2023-03-07T11:26:16.996Z,991.09
2023-03-07T11:27:16.857Z,991.07
2023-03-07T11:28:16.846Z,991.13
2023-03-07T11:29:16.837Z,991.05
2023-03-07T11:30:16.853Z,991.06
2023-03-07T11:31:16.837Z,991.14
2023-03-07T11:32:16.831Z,991.09
2023-03-07T11:33:16.793Z,991.06
2023-03-07T11:34:16.967Z,991.10
2023-03-07T11:35:16.789Z,991.11
2023-03-07T11:36:16.765Z,991.14
2023-03-07T11:37:16.762Z,991.06
2023-03-07T11:38:16.739Z,991.11
2023-03-07T11:39:16.729Z,991.08
2023-03-07T11:40:16.772Z,991.10
2023-03-07T11:41:16.716Z,991.05
2023-03-07T11:42:16.806Z,991.04
2023-03-07T11:43:16.689Z,991.07
2023-03-07T11:44:16.783Z,991.00
2023-03-07T11:45:16.672Z,991.06
2023-03-07T11:46:16.673Z,991.10
2023-03-07T11:47:16.658Z,991.06
2023-03-07T11:48:16.623Z,990.98
2023-03-07T11:49:19.566Z,991.02
2023-03-07T11:50:16.616Z,991.03
2023-03-07T11:51:16.602Z,991.13
2023-03-07T11:52:16.612Z,991.05
2023-03-07T11:53:16.580Z,991.05
2023-03-07T11:54:16.564Z,990.97
2023-03-07T11:55:16.572Z,991.04
2023-03-07T11:56:16.558Z,991.01
2023-03-07T11:57:16.536Z,990.98
2023-03-07T11:58:16.530Z,990.92
2023-03-07T11:59:16.516Z,990.95
2023-03-07T12:00:16.549Z,990.99
2023-03-07T12:01:16.502Z,991.01
2023-03-07T12:02:16.488Z,990.96
2023-03-07T12:03:16.470Z,990.91
2023-03-07T12:04:16.459Z,991.02
2023-03-07T12:05:16.524Z,990.97
2023-03-07T12:06:16.441Z,990.96
2023-03-07T12:07:16.428Z,990.95
2023-03-07T12:08:16.420Z,990.93
2023-03-07T12:09:16.532Z,990.94
2023-03-07T12:10:16.402Z,990.91
2023-03-07T12:11:16.381Z,990.80
2023-03-07T12:12:16.383Z,990.93
2023-03-07T12:13:16.360Z,990.87
2023-03-07T12:14:16.353Z,990.86
2023-03-07T12:15:16.350Z,990.87
2023-03-07T12:16:16.346Z,990.88
2023-03-07T12:17:16.333Z,990.80
2023-03-07T12:18:16.312Z,990.98
2023-03-07T12:19:16.303Z,990.74
2023-03-07T12:20:16.414Z,990.79
2023-03-07T12:21:16.274Z,990.82
2023-03-07T12:22:16.284Z,990.80
2023-03-07T12:23:16.290Z,990.78
2023-03-07T12:24:16.245Z,990.88
2023-03-07T12:25:16.245Z,990.77
2023-03-07T12:26:16.235Z,990.80
2023-03-07T12:27:16.227Z,990.83
2023-03-07T12:28:16.238Z,990.87
2023-03-07T12:29:16.195Z,990.78
2023-03-07T12:30:16.200Z,990.74
2023-03-07T12:31:16.221Z,990.81
2023-03-07T12:32:16.381Z,990.74
2023-03-07T12:33:16.228Z,990.71
2023-03-07T12:34:16.187Z,990.71
2023-03-07T12:35:16.148Z,990.72
2023-03-07T12:36:16.154Z,990.66
2023-03-07T12:37:16.119Z,990.71
2023-03-07T12:38:16.101Z,990.79
2023-03-07T12:39:16.090Z,990.75
2023-03-07T12:40:16.069Z,990.77
2023-03-07T12:41:16.069Z,990.81
2023-03-07T12:42:16.064Z,990.79
2023-03-07T12:43:16.055Z,990.79
2023-03-07T12:44:16.019Z,990.75
2023-03-07T12:45:16.133Z,990.75
2023-03-07T12:46:16.091Z,990.72
2023-03-07T12:47:16.001Z,990.70
2023-03-07T12:48:15.981Z,990.67
2023-03-07T12:49:16.006Z,990.62
2023-03-07T12:50:15.996Z,990.64
2023-03-07T12:51:15.955Z,990.64
2023-03-07T12:52:15.942Z,990.66
2023-03-07T12:53:15.931Z,990.60
2023-03-07T12:54:15.914Z,990.65
2023-03-07T12:55:15.935Z,990.62
2023-03-07T12:56:15.892Z,990.60
2023-03-07T12:57:15.891Z,990.68
2023-03-07T12:58:15.873Z,990.59
2023-03-07T12:59:15.875Z,990.61
2023-03-07T13:00:15.853Z,990.67
2023-03-07T13:01:15.895Z,990.60
2023-03-07T13:02:15.831Z,990.54
2023-03-07T13:03:15.822Z,990.63
2023-03-07T13:04:15.830Z,990.58
2023-03-07T13:05:15.812Z,990.57
2023-03-07T13:06:15.787Z,990.54
2023-03-07T13:07:15.805Z,990.61
2023-03-07T13:08:15.770Z,990.59
2023-03-07T13:09:15.757Z,990.56
2023-03-07T13:10:15.860Z,990.57
2023-03-07T13:11:15.743Z,990.59
2023-03-07T13:12:15.709Z,990.56
2023-03-07T13:13:15.710Z,990.54
2023-03-07T13:14:15.718Z,990.54
2023-03-07T13:15:15.700Z,990.53
2023-03-07T13:16:15.706Z,990.47
2023-03-07T13:17:15.669Z,990.49
2023-03-07T13:18:15.641Z,990.52
2023-03-07T13:19:15.658Z,990.49
2023-03-07T13:20:15.692Z,990.47
2023-03-07T13:21:15.621Z,990.44
2023-03-07T13:22:15.610Z,990.47
2023-03-07T13:23:15.650Z,990.46